createdAt,value
2018-12-23T00:00:02.633Z,1.73
2018-12-23T00:02:31.048Z,1.93
2018-12-23T00:04:59.392Z,1.77
2018-12-23T00:07:27.694Z,1.33
2018-12-23T00:09:55.940Z,1.80
2018-12-23T00:12:24.893Z,1.55
2018-12-23T00:14:53.153Z,1.40
2018-12-23T00:17:21.372Z,2.00
2018-12-23T00:19:49.627Z,2.10
2018-12-23T00:22:17.910Z,1.10
2018-12-23T00:24:46.172Z,1.40
2018-12-23T00:27:14.428Z,1.40
2018-12-23T00:29:42.739Z,1.27
2018-12-23T00:32:11.001Z,1.67
2018-12-23T00:34:39.322Z,1.97
2018-12-23T00:37:07.576Z,1.30
2018-12-23T00:39:35.825Z,1.77
2018-12-23T00:42:04.145Z,1.80
2018-12-23T00:44:32.392Z,1.50
2018-12-23T00:47:01.140Z,1.40
2018-12-23T00:49:29.408Z,1.40
2018-12-23T00:51:57.677Z,1.35
2018-12-23T00:54:25.952Z,1.20
2018-12-23T00:56:54.192Z,1.60
2018-12-23T00:59:22.435Z,1.63
2018-12-23T01:01:50.702Z,1.50
2018-12-23T01:04:19.006Z,1.40
2018-12-23T01:06:47.367Z,1.70
2018-12-23T01:09:15.629Z,1.47
2018-12-23T01:11:43.873Z,1.37
2018-12-23T01:14:12.128Z,1.40
2018-12-23T01:16:40.389Z,1.60
2018-12-23T01:19:08.642Z,1.50
2018-12-23T01:21:36.945Z,1.63
2018-12-23T01:24:05.236Z,1.50
2018-12-23T01:26:33.475Z,1.30
2018-12-23T01:29:01.732Z,1.37
2018-12-23T01:31:30.064Z,2.43
2018-12-23T01:33:58.329Z,2.03
2018-12-23T01:36:26.574Z,1.13
2018-12-23T01:38:54.845Z,1.10
2018-12-23T01:41:23.084Z,1.00
2018-12-23T01:43:51.387Z,0.80
2018-12-23T01:46:19.614Z,1.43
2018-12-23T01:48:47.863Z,1.00
2018-12-23T01:51:16.104Z,1.37
2018-12-23T01:53:44.555Z,1.10
2018-12-23T01:56:12.871Z,1.40
2018-12-23T01:58:41.103Z,1.10
2018-12-23T02:01:09.367Z,1.40
2018-12-23T02:03:37.626Z,0.93
2018-12-23T02:06:05.919Z,1.23
2018-12-23T02:08:34.196Z,1.10
2018-12-23T02:11:02.440Z,1.10
2018-12-23T02:13:30.685Z,1.13
2018-12-23T02:15:59.689Z,1.60
2018-12-23T02:18:27.973Z,1.30
2018-12-23T02:20:56.281Z,1.40
2018-12-23T02:23:24.537Z,1.10
2018-12-23T02:25:52.781Z,1.23
2018-12-23T02:28:21.046Z,1.20
2018-12-23T02:30:49.284Z,1.50
2018-12-23T02:33:17.541Z,1.50
2018-12-23T02:35:55.274Z,1.40
2018-12-23T02:38:16.112Z,1.50
2018-12-23T02:40:44.356Z,1.33
2018-12-23T02:43:12.680Z,1.80
2018-12-23T02:45:40.956Z,1.33
2018-12-23T02:48:09.208Z,1.80
2018-12-23T02:50:37.451Z,1.50
2018-12-23T02:53:05.693Z,1.33
2018-12-23T02:55:33.948Z,1.80
2018-12-23T02:58:02.881Z,1.67
2018-12-23T03:00:31.120Z,1.73
2018-12-23T03:02:59.380Z,1.73
2018-12-23T03:05:27.693Z,1.87
2018-12-23T03:07:56.152Z,1.70
2018-12-23T03:10:24.505Z,1.80
2018-12-23T03:12:52.749Z,1.70
2018-12-23T03:15:21.204Z,1.93
2018-12-23T03:17:49.443Z,1.50
2018-12-23T03:20:17.692Z,1.67
2018-12-23T03:22:46.004Z,1.43
2018-12-23T03:25:14.262Z,1.67
2018-12-23T03:27:42.567Z,1.63
2018-12-23T03:30:10.878Z,1.60
2018-12-23T03:32:39.221Z,2.03
2018-12-23T03:35:07.681Z,1.57
2018-12-23T03:37:35.939Z,1.77
2018-12-23T03:40:05.507Z,1.93
2018-12-23T03:42:33.826Z,1.93
2018-12-23T03:45:02.073Z,1.67
2018-12-23T03:47:30.330Z,1.80
2018-12-23T03:49:59.817Z,1.73
2018-12-23T03:52:28.126Z,1.60
2018-12-23T03:54:56.377Z,1.80
2018-12-23T03:57:24.637Z,1.57
2018-12-23T03:59:52.896Z,1.53
2018-12-23T04:02:21.138Z,1.50
2018-12-23T04:04:49.396Z,1.33
2018-12-23T04:07:17.637Z,1.47
2018-12-23T04:09:45.893Z,1.30
2018-12-23T04:12:14.138Z,1.60
2018-12-23T04:14:42.503Z,1.50
2018-12-23T04:17:10.853Z,1.37
2018-12-23T04:19:39.208Z,1.03
2018-12-23T04:22:07.501Z,1.40
2018-12-23T04:24:35.778Z,1.50
2018-12-23T04:27:04.063Z,1.50
2018-12-23T04:29:32.332Z,1.40
2018-12-23T04:32:00.581Z,1.87
2018-12-23T04:34:28.855Z,1.60
2018-12-23T04:36:57.093Z,1.50
2018-12-23T04:39:25.353Z,1.30
2018-12-23T04:41:53.607Z,1.37
2018-12-23T04:44:21.956Z,1.33
2018-12-23T04:46:50.197Z,1.47
2018-12-23T04:49:18.510Z,1.12
2018-12-23T04:51:46.764Z,1.20
2018-12-23T04:54:15.240Z,1.47
2018-12-23T04:56:43.484Z,1.60
2018-12-23T04:59:11.753Z,1.30
2018-12-23T05:01:40.069Z,1.33
2018-12-23T05:04:08.315Z,1.20
2018-12-23T05:06:43.200Z,1.47
2018-12-23T05:09:06.879Z,1.40
2018-12-23T05:11:35.129Z,1.50
2018-12-23T05:14:03.652Z,1.67
2018-12-23T05:16:31.964Z,1.40
2018-12-23T05:19:00.267Z,1.37
2018-12-23T05:21:28.522Z,1.47
2018-12-23T05:23:56.802Z,1.20
2018-12-23T05:26:25.131Z,1.20
2018-12-23T05:28:53.450Z,1.40
2018-12-23T05:31:21.691Z,1.50
2018-12-23T05:33:50.397Z,1.12
2018-12-23T05:36:18.696Z,1.30
2018-12-23T05:38:46.946Z,1.07
2018-12-23T05:41:15.202Z,1.30
2018-12-23T05:43:43.461Z,1.30
2018-12-23T05:46:11.694Z,1.20
2018-12-23T05:48:40.249Z,1.10
2018-12-23T05:51:09.374Z,1.17
2018-12-23T05:53:37.612Z,1.50
2018-12-23T05:56:05.880Z,1.17
2018-12-23T05:58:34.129Z,1.50
2018-12-23T06:01:02.465Z,1.33
2018-12-23T06:03:30.713Z,0.87
2018-12-23T06:05:58.965Z,1.20
2018-12-23T06:08:27.231Z,1.40
2018-12-23T06:10:55.487Z,1.13
2018-12-23T06:13:23.747Z,1.12
2018-12-23T06:15:51.988Z,1.10
2018-12-23T06:18:20.500Z,1.03
2018-12-23T06:20:48.960Z,1.30
2018-12-23T06:23:17.200Z,1.50
2018-12-23T06:25:45.466Z,1.20
2018-12-23T06:28:14.044Z,1.17
2018-12-23T06:30:42.296Z,1.23
2018-12-23T06:33:10.544Z,1.10
2018-12-23T06:35:38.804Z,1.07
2018-12-23T06:38:07.269Z,1.30
2018-12-23T06:40:35.518Z,1.07
2018-12-23T06:43:03.778Z,1.37
2018-12-23T06:45:32.023Z,1.20
2018-12-23T06:48:00.392Z,1.17
2018-12-23T06:50:28.647Z,1.30
2018-12-23T06:52:56.884Z,1.20
2018-12-23T06:55:25.149Z,1.10
2018-12-23T06:57:53.387Z,1.13
2018-12-23T07:00:21.663Z,1.10
2018-12-23T07:02:49.904Z,1.67
2018-12-23T07:05:18.161Z,1.50
2018-12-23T07:07:46.415Z,1.43
2018-12-23T07:10:14.836Z,1.60
2018-12-23T07:12:43.080Z,1.40
2018-12-23T07:15:11.324Z,1.30
2018-12-23T07:17:39.592Z,2.00
2018-12-23T07:20:07.915Z,1.77
2018-12-23T07:22:36.159Z,1.85
2018-12-23T07:25:04.498Z,2.00
2018-12-23T07:27:32.784Z,2.10
2018-12-23T07:30:01.033Z,1.70
2018-12-23T07:32:29.305Z,1.93
2018-12-23T07:34:57.627Z,1.70
2018-12-23T07:37:27.597Z,2.13
2018-12-23T07:39:56.127Z,2.63
2018-12-23T07:42:24.434Z,2.40
2018-12-23T07:44:52.688Z,2.40
2018-12-23T07:47:21.837Z,2.20
2018-12-23T07:49:50.152Z,2.63
2018-12-23T07:52:18.395Z,4.67
2018-12-23T07:54:46.652Z,2.30
2018-12-23T07:57:14.907Z,2.90
2018-12-23T07:59:43.164Z,2.47
2018-12-23T08:02:11.409Z,2.10
2018-12-23T08:04:39.647Z,3.27
2018-12-23T08:07:07.945Z,2.00
2018-12-23T08:09:36.264Z,2.47
2018-12-23T08:12:04.568Z,2.43
2018-12-23T08:14:32.828Z,2.20
2018-12-23T08:17:01.076Z,1.93
2018-12-23T08:19:29.334Z,2.10
2018-12-23T08:21:57.641Z,2.00
2018-12-23T08:24:25.905Z,2.10
2018-12-23T08:26:54.231Z,1.93
2018-12-23T08:29:22.468Z,2.20
2018-12-23T08:31:50.758Z,2.13
2018-12-23T08:34:18.983Z,2.53
2018-12-23T08:36:47.294Z,3.67
2018-12-23T08:39:15.559Z,1.97
2018-12-23T08:41:43.834Z,2.67
2018-12-23T08:44:12.064Z,2.50
2018-12-23T08:46:40.321Z,2.80
2018-12-23T08:49:08.606Z,2.33
2018-12-23T08:51:36.841Z,2.03
2018-12-23T08:54:05.128Z,2.23
2018-12-23T08:56:33.394Z,2.30
2018-12-23T08:59:01.635Z,2.73
2018-12-23T09:01:29.939Z,2.00
2018-12-23T09:03:58.194Z,2.92
2018-12-23T09:06:26.438Z,2.70
2018-12-23T09:08:54.717Z,3.13
2018-12-23T09:11:22.966Z,3.10
2018-12-23T09:13:51.406Z,3.27
2018-12-23T09:16:19.651Z,4.70
2018-12-23T09:18:47.902Z,6.37
2018-12-23T09:21:16.247Z,3.17
2018-12-23T09:23:44.487Z,2.50
2018-12-23T09:26:12.755Z,3.20
2018-12-23T09:28:41.000Z,2.83
2018-12-23T09:31:09.285Z,3.13
2018-12-23T09:33:37.551Z,3.20
2018-12-23T09:36:05.826Z,5.50
2018-12-23T09:38:34.579Z,6.33
2018-12-23T09:41:02.848Z,5.13
2018-12-23T09:43:31.095Z,9.40
2018-12-23T09:45:59.375Z,5.53
2018-12-23T09:48:27.746Z,2.60
2018-12-23T09:50:56.038Z,2.50
2018-12-23T09:53:24.275Z,2.40
2018-12-23T09:55:52.537Z,2.60
2018-12-23T09:58:20.787Z,2.23
2018-12-23T10:00:49.304Z,2.70
2018-12-23T10:03:17.563Z,2.50
2018-12-23T10:05:45.810Z,2.47
2018-12-23T10:08:14.103Z,2.07
2018-12-23T10:14:00.903Z,2.20
2018-12-23T10:16:30.506Z,2.43
2018-12-23T10:19:00.089Z,2.07
2018-12-23T10:21:29.775Z,1.97
2018-12-23T10:23:59.382Z,2.50
2018-12-23T10:26:29.015Z,2.37
2018-12-23T10:28:58.660Z,2.07
2018-12-23T10:31:28.282Z,2.17
2018-12-23T10:33:57.985Z,1.63
2018-12-23T10:36:27.607Z,2.30
2018-12-23T10:38:57.233Z,2.63
2018-12-23T10:41:27.903Z,1.90
2018-12-23T10:43:57.599Z,3.13
2018-12-23T10:46:27.271Z,2.70
2018-12-23T10:48:57.205Z,2.23
2018-12-23T10:51:26.911Z,2.20
2018-12-23T10:53:57.135Z,3.03
2018-12-23T10:56:26.915Z,2.30
2018-12-23T10:58:57.395Z,2.10
2018-12-23T11:01:27.289Z,2.10
2018-12-23T11:04:00.778Z,3.20
2018-12-23T11:06:30.440Z,2.27
2018-12-23T11:09:00.479Z,2.17
2018-12-23T11:11:30.272Z,2.33
2018-12-23T11:14:00.173Z,2.93
2018-12-23T11:16:30.259Z,3.40
2018-12-23T11:19:00.241Z,2.40
2018-12-23T11:21:30.250Z,2.47
2018-12-23T11:24:00.183Z,2.07
2018-12-23T11:26:30.596Z,1.77
2018-12-23T11:29:00.712Z,1.60
2018-12-23T11:31:30.916Z,2.73
2018-12-23T11:34:01.186Z,4.00
2018-12-23T11:36:30.804Z,3.47
2018-12-23T11:39:00.396Z,1.97
2018-12-23T11:41:30.033Z,1.70
2018-12-23T11:43:59.622Z,1.70
2018-12-23T11:46:29.204Z,1.93
2018-12-23T11:48:59.109Z,1.82
2018-12-23T11:51:28.799Z,1.93
2018-12-23T11:53:58.450Z,2.20
2018-12-23T11:56:28.082Z,2.20
2018-12-23T11:58:57.937Z,1.83
2018-12-23T12:01:27.580Z,1.77
2018-12-23T12:03:57.242Z,2.23
2018-12-23T12:06:26.944Z,2.07
2018-12-23T12:08:56.618Z,2.92
2018-12-23T12:11:26.256Z,2.07
2018-12-23T12:13:55.865Z,2.30
2018-12-23T12:16:25.527Z,2.10
2018-12-23T12:18:55.198Z,1.90
2018-12-23T12:21:24.840Z,2.35
2018-12-23T12:23:54.423Z,2.63
2018-12-23T12:26:24.094Z,2.50
2018-12-23T12:28:53.800Z,4.37
2018-12-23T12:31:23.446Z,2.27
2018-12-23T12:33:53.032Z,1.83
2018-12-23T12:36:22.660Z,1.90
2018-12-23T12:38:52.529Z,2.30
2018-12-23T12:41:22.164Z,2.17
2018-12-23T12:43:51.832Z,2.27
2018-12-23T12:46:21.541Z,2.20
2018-12-23T12:48:51.190Z,3.10
2018-12-23T12:51:20.816Z,2.60
2018-12-23T12:53:50.464Z,2.43
2018-12-23T12:56:20.159Z,2.17
2018-12-23T12:58:49.738Z,2.50
2018-12-23T13:01:19.378Z,2.70
2018-12-23T13:03:49.017Z,2.57
2018-12-23T13:06:18.597Z,1.90
2018-12-23T13:08:48.192Z,2.10
2018-12-23T13:11:17.823Z,2.00
2018-12-23T13:13:47.452Z,1.70
2018-12-23T13:16:17.390Z,1.90
2018-12-23T13:18:46.981Z,3.23
2018-12-23T13:21:16.572Z,1.90
2018-12-23T13:23:46.193Z,1.33
2018-12-23T13:26:15.821Z,3.90
2018-12-23T13:28:45.409Z,2.08
2018-12-23T13:31:15.418Z,1.45
2018-12-23T13:33:45.045Z,1.50
2018-12-23T13:36:14.668Z,1.50
2018-12-23T13:38:44.252Z,1.73
2018-12-23T13:41:21.495Z,2.13
2018-12-23T13:44:31.564Z,2.10
2018-12-23T13:47:37.627Z,2.10
2018-12-23T13:50:26.567Z,2.10
2018-12-23T13:53:24.556Z,2.40
2018-12-23T13:56:39.389Z,1.70
2018-12-23T13:59:32.816Z,1.27
2018-12-23T14:02:21.508Z,1.85
2018-12-23T14:05:05.424Z,2.00
2018-12-23T14:11:54.719Z,2.20
2018-12-23T14:14:24.586Z,2.03
2018-12-23T14:16:54.238Z,2.67
2018-12-23T14:19:23.876Z,2.90
2018-12-23T14:21:53.504Z,3.80
2018-12-23T14:24:23.137Z,5.37
2018-12-23T14:26:52.795Z,2.96
2018-12-23T14:29:23.669Z,8.30
2018-12-23T14:31:53.381Z,8.43
2018-12-23T14:34:23.137Z,5.80
2018-12-23T14:36:52.705Z,2.80
2018-12-23T14:39:27.284Z,2.83
2018-12-23T14:41:54.672Z,4.37
2018-12-23T14:44:24.338Z,3.30
2018-12-23T14:46:53.935Z,4.70
2018-12-23T14:49:23.523Z,4.00
2018-12-23T14:51:53.151Z,2.53
2018-12-23T14:54:22.795Z,2.47
2018-12-23T14:56:52.461Z,2.20
2018-12-23T14:59:22.052Z,2.33
2018-12-23T15:01:51.634Z,2.03
2018-12-23T15:04:21.264Z,1.90
2018-12-23T15:06:50.967Z,1.30
2018-12-23T15:09:20.555Z,1.37
2018-12-23T15:11:50.190Z,1.30
2018-12-23T15:14:19.854Z,1.20
2018-12-23T15:16:49.482Z,1.80
2018-12-23T15:19:19.069Z,2.20
2018-12-23T15:21:49.629Z,1.40
2018-12-23T15:24:19.213Z,1.90
2018-12-23T15:26:48.836Z,4.30
2018-12-23T15:29:18.425Z,7.30
2018-12-23T15:31:48.051Z,5.93
2018-12-23T15:34:17.832Z,9.20
2018-12-23T15:36:47.548Z,6.53
2018-12-23T15:39:17.269Z,5.83
2018-12-23T15:41:46.907Z,2.93
2018-12-23T15:44:16.536Z,1.80
2018-12-23T15:46:46.175Z,1.10
2018-12-23T15:49:15.819Z,1.67
2018-12-23T15:51:45.403Z,0.80
2018-12-23T15:54:15.039Z,1.30
2018-12-23T15:56:44.704Z,0.77
2018-12-23T15:59:14.288Z,0.90
2018-12-23T16:01:43.917Z,0.70
2018-12-23T16:04:13.579Z,0.77
2018-12-23T16:06:43.211Z,0.87
2018-12-23T16:09:12.797Z,0.70
2018-12-23T16:11:42.421Z,1.30
2018-12-23T16:14:12.016Z,1.07
2018-12-23T16:16:41.612Z,1.55
2018-12-23T16:19:11.242Z,1.10
2018-12-23T16:21:40.885Z,1.00
2018-12-23T16:24:10.465Z,1.13
2018-12-23T16:26:40.045Z,1.20
2018-12-23T16:29:09.685Z,1.60
2018-12-23T16:31:39.348Z,2.10
2018-12-23T16:34:08.955Z,3.40
2018-12-23T16:36:38.591Z,2.10
2018-12-23T16:39:08.400Z,3.55
2018-12-23T16:41:38.039Z,3.20
2018-12-23T16:44:07.626Z,2.37
2018-12-23T16:46:37.268Z,2.90
2018-12-23T16:49:06.855Z,2.50
2018-12-23T16:51:36.485Z,2.23
2018-12-23T16:54:06.138Z,1.87
2018-12-23T16:56:35.839Z,1.83
2018-12-23T16:59:05.535Z,2.10
2018-12-23T17:01:35.167Z,2.23
2018-12-23T17:04:04.757Z,1.50
2018-12-23T17:06:34.340Z,1.57
2018-12-23T17:09:04.912Z,2.07
2018-12-23T17:11:34.795Z,1.60
2018-12-23T17:14:04.387Z,1.87
2018-12-23T17:16:33.971Z,1.90
2018-12-23T17:19:03.604Z,1.90
2018-12-23T17:21:33.240Z,1.60
2018-12-23T17:24:02.876Z,2.50
2018-12-23T17:26:32.586Z,1.47
2018-12-23T17:29:02.223Z,1.70
2018-12-23T17:31:31.854Z,1.50
2018-12-23T17:34:01.492Z,2.03
2018-12-23T17:36:31.082Z,1.60
2018-12-23T17:39:00.714Z,2.00
2018-12-23T17:41:30.308Z,1.70
2018-12-23T17:44:00.003Z,1.93
2018-12-23T17:46:29.593Z,1.85
2018-12-23T17:48:59.230Z,2.17
2018-12-23T17:51:28.865Z,2.30
2018-12-23T17:53:58.503Z,2.57
2018-12-23T17:56:28.097Z,2.00
2018-12-23T17:59:17.068Z,3.00
2018-12-23T18:02:05.996Z,1.70
2018-12-23T18:04:35.632Z,1.67
2018-12-23T18:07:05.244Z,1.80
2018-12-23T18:09:34.890Z,1.80
2018-12-23T18:12:04.472Z,1.03
2018-12-23T18:14:34.089Z,1.10
2018-12-23T18:17:03.695Z,1.10
2018-12-23T18:19:33.324Z,0.97
2018-12-23T18:22:02.909Z,1.10
2018-12-23T18:24:32.545Z,1.47
2018-12-23T18:27:02.180Z,1.43
2018-12-23T18:29:31.878Z,1.37
2018-12-23T18:32:01.470Z,0.70
2018-12-23T18:34:31.093Z,0.50
2018-12-23T18:37:00.728Z,1.13
2018-12-23T18:39:30.616Z,0.63
2018-12-23T18:42:00.269Z,1.10
2018-12-23T18:44:29.856Z,1.93
2018-12-23T18:46:59.493Z,1.30
2018-12-23T18:49:29.125Z,1.37
2018-12-23T18:51:58.780Z,1.33
2018-12-23T18:54:28.407Z,0.90
2018-12-23T18:56:59.092Z,1.20
2018-12-23T18:59:29.065Z,1.17
2018-12-23T19:02:00.252Z,1.17
2018-12-23T19:04:29.925Z,0.87
2018-12-23T19:06:59.510Z,0.60
2018-12-23T19:09:31.647Z,1.50
2018-12-23T19:12:37.199Z,1.30
2018-12-23T19:15:22.992Z,1.13
2018-12-23T19:18:16.360Z,2.67
2018-12-23T19:21:21.639Z,2.50
2018-12-23T19:24:18.105Z,1.40
2018-12-23T19:27:32.698Z,1.30
2018-12-23T19:30:32.178Z,0.70
2018-12-23T19:33:08.926Z,1.10
2018-12-23T19:36:19.231Z,1.20
2018-12-23T19:39:14.426Z,0.70
2018-12-23T19:42:17.706Z,0.80
2018-12-23T19:45:21.164Z,1.00
2018-12-23T19:48:21.786Z,0.57
2018-12-23T19:51:07.673Z,0.77
2018-12-23T19:53:41.951Z,0.83
2018-12-23T19:56:42.959Z,0.77
2018-12-23T19:59:19.987Z,0.80
2018-12-23T20:02:06.069Z,0.90
2018-12-23T20:04:57.869Z,0.70
2018-12-23T20:08:12.593Z,1.10
2018-12-23T20:11:04.701Z,1.60
2018-12-23T20:14:24.131Z,0.90
2018-12-23T20:17:29.911Z,1.40
2018-12-23T20:20:25.205Z,1.20
2018-12-23T20:23:20.461Z,1.10
2018-12-23T20:26:03.172Z,1.73
2018-12-23T20:29:15.146Z,1.60
2018-12-23T20:32:22.527Z,0.50
2018-12-23T20:35:15.875Z,1.10
2018-12-23T20:38:02.127Z,0.80
2018-12-23T20:41:07.493Z,2.13
2018-12-23T20:43:53.411Z,0.50
2018-12-23T20:46:34.706Z,0.60
2018-12-23T20:49:23.199Z,0.60
2018-12-23T20:52:18.231Z,0.90
2018-12-23T20:55:25.567Z,1.00
2018-12-23T20:58:14.565Z,1.00
2018-12-23T21:01:16.504Z,0.60
2018-12-23T21:04:11.731Z,0.97
2018-12-23T21:07:09.781Z,0.70
2018-12-23T21:09:59.854Z,0.50
2018-12-23T21:13:05.563Z,0.50
2018-12-23T21:16:15.912Z,0.50
2018-12-23T21:19:01.988Z,0.70
2018-12-23T21:22:29.581Z,0.60
2018-12-23T21:25:20.262Z,0.60
2018-12-23T21:28:03.687Z,0.57
2018-12-23T21:30:49.814Z,0.47
2018-12-23T21:34:04.459Z,0.40
2018-12-23T21:36:41.718Z,0.47
2018-12-23T21:39:46.072Z,0.60
2018-12-23T21:42:44.249Z,0.37
2018-12-23T21:45:35.062Z,0.50
2018-12-23T21:48:37.472Z,0.80
2018-12-23T21:51:29.516Z,0.50
2018-12-23T21:54:39.373Z,0.70
2018-12-23T21:57:55.829Z,0.50
2018-12-23T22:01:00.129Z,0.13
2018-12-23T22:03:52.290Z,0.60
2018-12-23T22:06:29.501Z,0.50
2018-12-23T22:09:27.417Z,0.20
2018-12-23T22:12:37.435Z,0.50
2018-12-23T22:15:07.098Z,0.40
2018-12-23T22:17:36.747Z,0.67
2018-12-23T22:20:07.071Z,0.40
2018-12-23T22:22:37.961Z,0.80
2018-12-23T22:25:07.606Z,0.40
2018-12-23T22:27:37.216Z,0.57
2018-12-23T22:30:07.905Z,0.70
2018-12-23T22:32:37.557Z,0.80
2018-12-23T22:35:07.144Z,0.47
2018-12-23T22:37:36.749Z,1.40
2018-12-23T22:40:07.415Z,0.90
2018-12-23T22:42:37.256Z,0.40
2018-12-23T22:45:06.905Z,1.97
2018-12-23T22:47:36.513Z,0.50
2018-12-23T22:50:06.242Z,0.60
2018-12-23T22:52:36.119Z,0.50
2018-12-23T22:55:05.774Z,0.80
2018-12-23T22:57:35.358Z,0.57
2018-12-23T23:00:06.305Z,0.60
2018-12-23T23:02:36.198Z,0.80
2018-12-23T23:05:05.944Z,0.63
2018-12-23T23:07:35.553Z,0.40
2018-12-23T23:10:05.779Z,0.90
2018-12-23T23:12:35.379Z,0.88
2018-12-23T23:15:05.523Z,1.27
2018-12-23T23:17:35.207Z,1.27
2018-12-23T23:20:04.864Z,0.57
2018-12-23T23:22:34.481Z,0.40
2018-12-23T23:25:04.356Z,1.33
2018-12-23T23:27:33.944Z,0.67
2018-12-23T23:30:03.548Z,0.95
2018-12-23T23:32:33.150Z,0.70
2018-12-23T23:35:02.751Z,1.07
2018-12-23T23:37:32.363Z,1.20
2018-12-23T23:40:02.145Z,0.90
2018-12-23T23:42:31.751Z,0.80
2018-12-23T23:45:01.357Z,1.03
2018-12-23T23:47:30.951Z,1.10
2018-12-23T23:50:00.632Z,0.70
2018-12-23T23:52:30.252Z,0.60
2018-12-23T23:54:59.841Z,0.50
2018-12-23T23:57:29.447Z,0.50
2018-12-23T23:59:59.052Z,0.50
